»·PEaware :: ENY6653 KRNO-KLAX

ENY6653 :: KRNO-KLAX

FLIGHT INFORMATION

Flight Status: Arrived
Operator: Unknown
More flights by this operator :: More flights under this callsign
Pilot: Skye D. (10623)
Aircraft: EMBRAER EMB-170/175
(E170)
More flights by this aircraft type
Origin: KRNO Reno/Tahoe Intl
United States
Destination: KLAX Los Angeles Intl
United States
More flights between these airports :: More routes between these airports
Route: ZEFFR8 DARBI FRA J7 REBRG IRNMN2
File this flight plan on PilotEdge
Remarks:
Altitude:
(Current/Filed)
37,000ft
Speed:
(Current/Filed)
446kts
Departed: 05-Aug-23 03:21 PM
Arrived: 05-Aug-23 04:32 PM
Distance/Time
Traveled:
340nm/1:11
Distance/Time
To Go:
Arrived

Flight Plot

Page will automatically refresh every two minutes.

Flight plan parsing failed; only flown route is shown


Map Options




Map Legend


Flown Route
Filed Route
Departure Airport
Arrival Airport
Navaid (VOR, NDB)
Fix

Horizontal Profiles

Position Reports

Time Latitude Longitude Heading Altitude Ground
Speed
05-Aug-23 14:56 39.507294 -119.772946 180 4413ft 0kts
05-Aug-23 14:57 39.507294 -119.772946 180 4413ft 0kts
05-Aug-23 14:58 39.507294 -119.772946 180 4413ft 0kts
05-Aug-23 14:59 39.507294 -119.772946 180 4413ft 0kts
05-Aug-23 15:00 39.507294 -119.772946 180 4413ft 0kts
05-Aug-23 15:01 39.507294 -119.772946 180 4413ft 0kts
05-Aug-23 15:02 39.507294 -119.772946 180 4413ft 0kts
05-Aug-23 15:03 39.507294 -119.772946 180 4413ft 0kts
05-Aug-23 15:04 39.507294 -119.772946 180 4413ft 0kts
05-Aug-23 15:05 39.507294 -119.772946 180 4413ft 0kts
05-Aug-23 15:06 39.507294 -119.772946 180 4413ft 0kts
05-Aug-23 15:07 39.507294 -119.772946 180 4413ft 0kts
05-Aug-23 15:08 39.507295 -119.772946 180 4413ft 0kts
05-Aug-23 15:09 39.507585 -119.772942 180 4413ft 0kts
05-Aug-23 15:12 39.508022 -119.773532 89 4413ft 0kts
05-Aug-23 15:13 39.508022 -119.773532 89 4413ft 0kts
05-Aug-23 15:14 39.508025 -119.773227 88 4413ft 3kts
05-Aug-23 15:15 39.508052 -119.770960 86 4412ft 9kts
05-Aug-23 15:16 39.511014 -119.770637 359 4415ft 12kts
05-Aug-23 15:17 39.513571 -119.770524 34 4417ft 0kts
05-Aug-23 15:18 39.513699 -119.770054 85 4417ft 4kts
05-Aug-23 15:19 39.513310 -119.769219 179 4416ft 0kts
05-Aug-23 15:20 39.485627 -119.769373 179 4850ft 186kts
05-Aug-23 15:21 39.426926 -119.768971 179 6914ft 233kts
05-Aug-23 15:22 39.359217 -119.767555 180 9343ft 244kts
05-Aug-23 15:23 39.284640 -119.768196 179 10418ft 298kts
05-Aug-23 15:24 39.202640 -119.765277 178 12710ft 296kts
05-Aug-23 15:25 39.114844 -119.761963 178 13882ft 331kts
05-Aug-23 15:26 39.019426 -119.758403 180 15124ft 352kts
05-Aug-23 15:27 38.920039 -119.754673 179 16771ft 361kts
05-Aug-23 15:28 38.818365 -119.750833 181 18513ft 372kts
05-Aug-23 15:29 38.713992 -119.746951 182 20574ft 379kts
05-Aug-23 15:30 38.607799 -119.743005 183 22722ft 385kts
05-Aug-23 15:31 38.500128 -119.739014 184 24665ft 388kts
05-Aug-23 15:32 38.391081 -119.734982 185 26176ft 396kts
05-Aug-23 15:33 38.280116 -119.729496 182 27641ft 403kts
05-Aug-23 15:34 38.168710 -119.716533 184 28754ft 408kts
05-Aug-23 15:35 38.055317 -119.703453 185 30414ft 396kts
05-Aug-23 15:36 37.945011 -119.690736 185 31573ft 394kts
05-Aug-23 15:37 37.835704 -119.678279 185 32525ft 398kts
05-Aug-23 15:38 37.723813 -119.665510 185 33110ft 411kts
05-Aug-23 15:39 37.609776 -119.652526 185 33950ft 414kts
05-Aug-23 15:40 37.493141 -119.639293 185 34428ft 425kts
05-Aug-23 15:41 37.374709 -119.625889 185 35153ft 427kts
05-Aug-23 15:42 37.255374 -119.612424 185 35668ft 431kts
05-Aug-23 15:43 37.135933 -119.599006 185 36242ft 433kts
05-Aug-23 15:44 37.016644 -119.596995 191 36570ft 431kts
05-Aug-23 15:45 36.895586 -119.599089 190 36908ft 437kts
05-Aug-23 15:46 36.774408 -119.601186 190 37415ft 437kts
05-Aug-23 15:47 36.653324 -119.603267 190 37891ft 434kts
05-Aug-23 15:48 36.532286 -119.605349 190 37895ft 434kts
05-Aug-23 15:49 36.411141 -119.607425 190 37906ft 436kts
05-Aug-23 15:50 36.289684 -119.609508 190 37910ft 436kts
05-Aug-23 15:51 36.168655 -119.611558 190 37911ft 436kts
05-Aug-23 15:52 36.046967 -119.613625 190 37911ft 436kts
05-Aug-23 15:53 35.930405 -119.633942 204 37914ft 415kts
05-Aug-23 15:54 35.820016 -119.675347 205 37908ft 415kts
05-Aug-23 15:55 35.710041 -119.716527 203 37905ft 406kts
05-Aug-23 15:56 35.600358 -119.748856 199 37900ft 408kts
05-Aug-23 15:57 35.488696 -119.775933 199 37901ft 409kts
05-Aug-23 15:58 35.397784 -119.797958 199 37298ft 422kts
05-Aug-23 15:59 35.280092 -119.804042 175 35462ft 442kts
05-Aug-23 16:00 35.174226 -119.722852 141 33349ft 470kts
05-Aug-23 16:01 35.074819 -119.624552 150 31338ft 459kts
05-Aug-23 16:02 34.973303 -119.530218 149 29370ft 452kts
05-Aug-23 16:03 34.877360 -119.442441 150 27574ft 434kts
05-Aug-23 16:04 34.782135 -119.356458 146 26716ft 433kts
05-Aug-23 16:05 34.689159 -119.276401 148 23966ft 386kts
05-Aug-23 16:06 34.602354 -119.200110 149 22179ft 388kts
05-Aug-23 16:07 34.515630 -119.124192 148 20442ft 383kts
05-Aug-23 16:08 34.430018 -119.048707 147 18694ft 375kts
05-Aug-23 16:09 34.346052 -118.975973 146 16994ft 365kts
05-Aug-23 16:10 34.268254 -118.905505 145 15371ft 322kts
05-Aug-23 16:11 34.198824 -118.841899 145 13971ft 314kts
05-Aug-23 16:12 34.131921 -118.774888 139 12610ft 311kts
05-Aug-23 16:13 34.067999 -118.705403 139 11178ft 306kts
05-Aug-23 16:14 34.026091 -118.624244 97 9819ft 280kts
05-Aug-23 16:15 34.017372 -118.533624 96 8629ft 269kts
05-Aug-23 16:16 34.004060 -118.450440 111 7275ft 241kts
05-Aug-23 16:17 33.979849 -118.375868 111 7250ft 244kts
05-Aug-23 16:18 33.955069 -118.299498 111 7245ft 243kts
05-Aug-23 16:19 33.930646 -118.224227 111 7245ft 243kts
05-Aug-23 16:20 33.906076 -118.147719 111 7245ft 243kts
05-Aug-23 16:21 33.892728 -118.068967 81 7269ft 246kts
05-Aug-23 16:22 33.903460 -117.987116 81 7246ft 245kts
05-Aug-23 16:23 33.951834 -117.964740 304 6894ft 241kts
05-Aug-23 16:24 33.964799 -118.039052 261 5426ft 218kts
05-Aug-23 16:25 33.961497 -118.110186 271 3940ft 208kts
05-Aug-23 16:26 33.958103 -118.176274 262 3078ft 178kts
05-Aug-23 16:27 33.952028 -118.238076 262 2517ft 182kts
05-Aug-23 16:28 33.946350 -118.294420 262 1572ft 156kts
05-Aug-23 16:29 33.942014 -118.337122 262 878ft 112kts
05-Aug-23 16:30 33.937974 -118.376419 262 254ft 120kts
05-Aug-23 16:31 33.935858 -118.402321 286 123ft 22kts
05-Aug-23 16:32 33.936169 -118.405198 263 127ft 8kts
05-Aug-23 16:33 33.936224 -118.408705 314 131ft 13kts
05-Aug-23 16:34 33.938852 -118.407427 83 130ft 15kts
05-Aug-23 16:35 33.939370 -118.402273 83 123ft 18kts
05-Aug-23 16:36 33.939962 -118.396576 83 114ft 11kts
05-Aug-23 16:37 33.940438 -118.393283 40 109ft 7kts
05-Aug-23 16:38 33.941670 -118.393602 285 109ft 1kts
05-Aug-23 16:39 33.941682 -118.393656 285 109ft 0kts
05-Aug-23 16:40 33.941682 -118.393656 285 109ft 0kts

Navigation Log

Ident Type
Flight plan parsing failed, navigation log unavailable